Time;durP1;ratioP1;P1;durP2;ratioP2;P2;SDS_P1;SDS_P2;PMS_P1;PMS_P2;Temp;Humidity;BMP_temperature;BMP_pressure;BME280_temperature;BME280_humidity;BME280_pressure;Samples;Min_cycle;Max_cycle;Signal;HPM_P1;HPM_P2
2022/10/10 00:00:23;;;;;;;;;;;;;;;;;;5018808;28;8411;-82
2022/10/10 00:02:48;;;;;;;;;;;;;;;;;;5017671;28;8538;-83
2022/10/10 00:05:14;;;;;;;;;;;;;;;;;;5018006;28;7098;-81
2022/10/10 00:07:39;;;;;;;;;;;;;;;;;;5018011;28;9393;-81
2022/10/10 00:10:05;;;;;;;;;;;;;;;;;;5018078;28;7496;-81
2022/10/10 00:12:31;;;;;;;;;;;;;;;;;;5018114;28;8322;-82
2022/10/10 00:14:56;;;;;;;;;;;;;;;;;;5017587;28;6969;-82
2022/10/10 00:17:21;;;;;;;;;;;;;;;;;;5017179;28;7036;-83
2022/10/10 00:19:47;;;;;;;;;;;;;;;;;;5017405;28;7408;-82
2022/10/10 00:22:12;;;;;;;;;;;;;;;;;;5017662;28;8550;-83
2022/10/10 00:24:38;;;;;;;;;;;;;;;;;;5018169;28;7308;-82
2022/10/10 00:27:03;;;;;;;;;;;;;;;;;;5017505;28;8376;-82
2022/10/10 00:29:29;;;;;;;;;;;;;;;;;;5017390;28;7232;-83
2022/10/10 00:31:54;;;;;;;;;;;;;;;;;;5017205;28;7395;-81
2022/10/10 00:34:20;;;;;;;;;;;;;;;;;;5018225;28;7355;-83
2022/10/10 00:36:45;;;;;;;;;;;;;;;;;;5017190;28;8400;-82
2022/10/10 00:39:11;;;;;;;;;;;;;;;;;;5017387;28;8351;-84
2022/10/10 00:41:36;;;;;;;;;;;;;;;;;;5017332;28;8436;-83
2022/10/10 00:44:07;;;;;;;;;;;;;;;;;;5017742;28;7006;-82
2022/10/10 00:46:32;;;;;;;;;;;;;;;;;;5016942;28;7258;-83
2022/10/10 00:49:00;;;;;;;;;;;;;;;;;;5018031;28;8810;-82
2022/10/10 00:51:25;;;;;;;;;;;;;;;;;;5017365;28;8376;-81
2022/10/10 00:53:55;;;;;;;;;;;;;;;;;;5017297;28;9289;-81
2022/10/10 00:56:26;;;;;;;;;;;;;;;;;;5017221;28;8430;-81
2022/10/10 00:58:52;;;;;;;;;;;;;;;;;;5017188;28;7365;-82
2022/10/10 01:01:18;;;;;;;;;;;;;;;;;;5017179;28;9406;-82
2022/10/10 01:03:44;;;;;;;;;;;;;;;;;;5017433;28;7151;-82
2022/10/10 01:06:10;;;;;;;;;;;;;;;;;;5016311;28;7624;-82
2022/10/10 01:08:36;;;;;;;;;;;;;;;;;;5016098;28;8456;-82
2022/10/10 01:11:28;;;;;;;;;;;;;;;;;;5016744;28;7150;-82
2022/10/10 01:13:53;;;;;;;;;;;;;;;;;;5016280;28;7235;-81
2022/10/10 01:16:27;;;;;;;;;;;;;;;;;;5032464;28;8578;-83
2022/10/10 01:18:56;;;;;;;;;;;;;;;;;;5015897;28;7266;-81
2022/10/10 01:21:46;;;;;;;;;;;;;;;;;;5032868;28;8375;-81
2022/10/10 01:24:34;;;;;;;;;;;;;;;;;;5016517;28;7230;-81
2022/10/10 01:27:21;;;;;;;;;;;;;;;;;;5015967;28;8414;-83
2022/10/10 01:29:51;;;;;;;;;;;;;;;;;;5020177;28;8429;-82
2022/10/10 01:32:25;;;;;;;;;;;;;;;;;;5020780;28;8506;-80
2022/10/10 01:35:09;;;;;;;;;;;;;;;;;;5021913;28;8817;-80
2022/10/10 01:37:35;;;;;;;;;;;;;;;;;;5036516;28;7024;-81
2022/10/10 01:40:08;;;;;;;;;;;;;;;;;;5036069;28;8458;-81
2022/10/10 01:42:41;;;;;;;;;;;;;;;;;;5019846;28;7170;-81
2022/10/10 01:45:07;;;;;;;;;;;;;;;;;;5021445;28;7214;-81
2022/10/10 01:47:32;;;;;;;;;;;;;;;;;;5020683;28;8409;-81
2022/10/10 01:50:02;;;;;;;;;;;;;;;;;;5019626;28;8390;-80
2022/10/10 01:52:46;;;;;;;;;;;;;;;;;;5020043;28;7425;-81
2022/10/10 01:55:11;;;;;;;;;;;;;;;;;;5036927;28;8767;-81
2022/10/10 01:57:37;;;;;;;;;;;;;;;;;;5036942;28;8295;-82
2022/10/10 02:00:08;;;;;;;;;;;;;;;;;;5036305;28;7045;-81
2022/10/10 02:02:33;;;;;;;;;;;;;;;;;;5020146;28;8530;-82
2022/10/10 02:05:25;;;;;;;;;;;;;;;;;;5037477;28;8448;-81
2022/10/10 02:08:07;;;;;;;;;;;;;;;;;;5012388;28;7520;-82
2022/10/10 02:10:36;;;;;;;;;;;;;;;;;;5020183;28;8322;-81
2022/10/10 02:13:04;;;;;;;;;;;;;;;;;;5019795;28;8410;-83
2022/10/10 02:15:39;;;;;;;;;;;;;;;;;;5020039;28;7047;-82
2022/10/10 02:18:08;;;;;;;;;;;;;;;;;;5019705;28;8628;-81
2022/10/10 02:20:34;;;;;;;;;;;;;;;;;;5019955;28;7146;-82
2022/10/10 02:22:59;;;;;;;;;;;;;;;;;;5019768;28;8569;-81
2022/10/10 02:25:32;;;;;;;;;;;;;;;;;;5019527;28;8579;-82
2022/10/10 02:27:57;;;;;;;;;;;;;;;;;;5019859;28;7158;-82
2022/10/10 02:30:23;;;;;;;;;;;;;;;;;;5036235;28;8386;-81
2022/10/10 02:32:54;;;;;;;;;;;;;;;;;;5019881;28;7372;-82
2022/10/10 02:35:26;;;;;;;;;;;;;;;;;;5019883;28;8404;-81
2022/10/10 02:37:53;;;;;;;;;;;;;;;;;;5019525;28;7147;-81
2022/10/10 02:40:22;;;;;;;;;;;;;;;;;;5019087;28;7395;-82
2022/10/10 02:42:50;;;;;;;;;;;;;;;;;;5019190;28;8708;-80
2022/10/10 02:45:18;;;;;;;;;;;;;;;;;;5019523;28;8485;-82
2022/10/10 02:47:45;;;;;;;;;;;;;;;;;;5019519;28;7141;-81
2022/10/10 02:50:10;;;;;;;;;;;;;;;;;;5019360;28;7171;-81
2022/10/10 02:52:36;;;;;;;;;;;;;;;;;;5019126;28;7007;-81
2022/10/10 02:55:01;;;;;;;;;;;;;;;;;;5019022;28;7014;-81
2022/10/10 02:57:27;;;;;;;;;;;;;;;;;;5019214;28;8458;-82
2022/10/10 02:59:52;;;;;;;;;;;;;;;;;;5018763;28;8553;-82
2022/10/10 03:02:18;;;;;;;;;;;;;;;;;;5019197;28;8439;-81
2022/10/10 03:04:43;;;;;;;;;;;;;;;;;;5019285;28;8368;-82
2022/10/10 03:07:09;;;;;;;;;;;;;;;;;;5018800;28;8442;-81
2022/10/10 03:09:35;;;;;;;;;;;;;;;;;;5019365;28;7156;-81
2022/10/10 03:12:00;;;;;;;;;;;;;;;;;;5018925;28;8418;-82
2022/10/10 03:14:26;;;;;;;;;;;;;;;;;;5018806;28;8445;-82
2022/10/10 03:16:52;;;;;;;;;;;;;;;;;;5018684;28;7027;-82
2022/10/10 03:19:17;;;;;;;;;;;;;;;;;;5018416;28;8252;-82
2022/10/10 03:21:43;;;;;;;;;;;;;;;;;;5019346;28;8714;-82
2022/10/10 03:24:09;;;;;;;;;;;;;;;;;;5018548;28;8293;-82
2022/10/10 03:26:34;;;;;;;;;;;;;;;;;;5018573;28;7186;-82
2022/10/10 03:29:00;;;;;;;;;;;;;;;;;;5018294;28;8792;-82
2022/10/10 03:31:26;;;;;;;;;;;;;;;;;;5018263;28;8522;-81
2022/10/10 03:33:51;;;;;;;;;;;;;;;;;;5018862;28;9678;-82
2022/10/10 03:36:17;;;;;;;;;;;;;;;;;;5019150;28;8460;-83
2022/10/10 03:38:42;;;;;;;;;;;;;;;;;;5018093;28;8557;-82
2022/10/10 03:41:08;;;;;;;;;;;;;;;;;;5014659;28;8593;-82
2022/10/10 03:43:33;;;;;;;;;;;;;;;;;;5014818;28;8402;-83
2022/10/10 03:45:58;;;;;;;;;;;;;;;;;;5014998;28;7162;-82
2022/10/10 03:48:24;;;;;;;;;;;;;;;;;;5015248;28;8436;-81
2022/10/10 03:50:49;;;;;;;;;;;;;;;;;;5014215;28;7372;-82
2022/10/10 03:53:15;;;;;;;;;;;;;;;;;;5015028;28;7355;-82
2022/10/10 03:55:41;;;;;;;;;;;;;;;;;;5014650;28;8396;-82
2022/10/10 03:58:08;;;;;;;;;;;;;;;;;;5016335;28;7348;-79
2022/10/10 04:00:33;;;;;;;;;;;;;;;;;;5014637;28;7303;-82
2022/10/10 04:02:59;;;;;;;;;;;;;;;;;;5014484;28;8410;-82
2022/10/10 04:05:25;;;;;;;;;;;;;;;;;;5014594;28;8401;-81
2022/10/10 04:07:50;;;;;;;;;;;;;;;;;;5014487;28;8410;-82
2022/10/10 04:10:16;;;;;;;;;;;;;;;;;;5014531;28;8566;-82
2022/10/10 04:12:41;;;;;;;;;;;;;;;;;;5014364;28;8496;-81
2022/10/10 04:15:07;;;;;;;;;;;;;;;;;;5014474;28;8446;-82
2022/10/10 04:17:33;;;;;;;;;;;;;;;;;;5013991;28;7139;-81
2022/10/10 04:19:58;;;;;;;;;;;;;;;;;;5014350;28;8448;-81
2022/10/10 04:22:23;;;;;;;;;;;;;;;;;;5014374;28;8571;-81
2022/10/10 04:24:49;;;;;;;;;;;;;;;;;;5014049;28;8580;-82
2022/10/10 04:27:14;;;;;;;;;;;;;;;;;;5014454;28;7172;-81
2022/10/10 04:29:40;;;;;;;;;;;;;;;;;;5014062;28;8664;-82
2022/10/10 04:32:06;;;;;;;;;;;;;;;;;;5014292;28;7023;-81
2022/10/10 04:34:32;;;;;;;;;;;;;;;;;;5014672;28;9036;-81
2022/10/10 04:36:58;;;;;;;;;;;;;;;;;;5013841;28;8416;-82
2022/10/10 04:39:23;;;;;;;;;;;;;;;;;;5013769;28;7234;-82
2022/10/10 04:41:49;;;;;;;;;;;;;;;;;;5014186;28;8421;-82
2022/10/10 04:44:15;;;;;;;;;;;;;;;;;;5014292;28;8563;-81
2022/10/10 04:46:41;;;;;;;;;;;;;;;;;;5014451;28;8446;-82
2022/10/10 04:49:07;;;;;;;;;;;;;;;;;;5013801;28;8259;-81
2022/10/10 04:51:32;;;;;;;;;;;;;;;;;;5013824;28;7344;-82
2022/10/10 04:53:57;;;;;;;;;;;;;;;;;;5014803;28;7037;-81
2022/10/10 04:56:24;;;;;;;;;;;;;;;;;;5014035;28;8398;-82
2022/10/10 04:58:50;;;;;;;;;;;;;;;;;;5013814;28;7045;-81
2022/10/10 05:01:16;;;;;;;;;;;;;;;;;;5013565;28;8417;-82
2022/10/10 05:03:41;;;;;;;;;;;;;;;;;;5016279;28;7417;-82
2022/10/10 05:06:07;;;;;;;;;;;;;;;;;;5018139;28;8406;-81
2022/10/10 05:08:32;;;;;;;;;;;;;;;;;;5018027;28;8491;-83
2022/10/10 05:10:57;;;;;;;;;;;;;;;;;;5017724;28;7225;-82
2022/10/10 05:13:23;;;;;;;;;;;;;;;;;;5017677;28;8260;-82
2022/10/10 05:15:50;;;;;;;;;;;;;;;;;;5017727;28;8407;-81
2022/10/10 05:18:15;;;;;;;;;;;;;;;;;;5017815;28;8475;-80
2022/10/10 05:20:42;;;;;;;;;;;;;;;;;;5017328;28;7389;-81
2022/10/10 05:23:08;;;;;;;;;;;;;;;;;;5017779;28;7166;-82
2022/10/10 05:25:33;;;;;;;;;;;;;;;;;;5017675;28;8377;-83
2022/10/10 05:27:59;;;;;;;;;;;;;;;;;;5017352;28;8280;-81
2022/10/10 05:30:25;;;;;;;;;;;;;;;;;;5017251;28;7008;-82
2022/10/10 05:32:50;;;;;;;;;;;;;;;;;;5017084;28;8399;-83
2022/10/10 05:35:16;;;;;;;;;;;;;;;;;;5017352;28;8565;-82
2022/10/10 05:37:41;;;;;;;;;;;;;;;;;;5017022;28;7130;-81
2022/10/10 05:40:08;;;;;;;;;;;;;;;;;;4990339;28;8373;-82
2022/10/10 05:42:33;;;;;;;;;;;;;;;;;;4996848;28;8860;-81
2022/10/10 05:44:58;;;;;;;;;;;;;;;;;;5001154;28;8402;-81
2022/10/10 05:47:24;;;;;;;;;;;;;;;;;;5003969;28;8428;-81
2022/10/10 05:49:50;;;;;;;;;;;;;;;;;;5002046;28;8354;-80
2022/10/10 05:52:15;;;;;;;;;;;;;;;;;;5002465;28;8617;-81
2022/10/10 05:54:41;;;;;;;;;;;;;;;;;;5006541;28;8314;-80
2022/10/10 05:57:06;;;;;;;;;;;;;;;;;;5001776;28;7338;-82
2022/10/10 05:59:32;;;;;;;;;;;;;;;;;;5002644;28;6805;-81
2022/10/10 06:01:57;;;;;;;;;;;;;;;;;;5002828;28;7150;-81
2022/10/10 06:04:23;;;;;;;;;;;;;;;;;;5001299;28;7143;-81
2022/10/10 06:06:49;;;;;;;;;;;;;;;;;;5004331;28;7358;-82
2022/10/10 06:09:14;;;;;;;;;;;;;;;;;;5007032;28;7286;-82
2022/10/10 06:11:39;;;;;;;;;;;;;;;;;;5013620;28;8597;-82
2022/10/10 06:14:05;;;;;;;;;;;;;;;;;;5013108;28;8471;-82
2022/10/10 06:16:30;;;;;;;;;;;;;;;;;;5014117;28;7032;-81
2022/10/10 06:18:56;;;;;;;;;;;;;;;;;;5012437;28;7159;-81
2022/10/10 06:21:22;;;;;;;;;;;;;;;;;;5013157;28;8443;-85
2022/10/10 06:23:48;;;;;;;;;;;;;;;;;;5012935;28;8705;-80
2022/10/10 06:26:14;;;;;;;;;;;;;;;;;;5007723;28;7128;-89
2022/10/10 06:28:39;;;;;;;;;;;;;;;;;;5012970;28;8364;-82
2022/10/10 06:31:07;;;;;;;;;;;;;;;;;;5012921;28;7064;-82
2022/10/10 06:33:33;;;;;;;;;;;;;;;;;;5013239;28;9096;-81
2022/10/10 06:36:04;;;;;;;;;;;;;;;;;;5012936;28;7394;-82
2022/10/10 06:38:30;;;;;;;;;;;;;;;;;;5012670;28;8821;-82
2022/10/10 06:41:00;;;;;;;;;;;;;;;;;;5012724;28;7185;-82
2022/10/10 06:43:26;;;;;;;;;;;;;;;;;;5012761;28;7262;-82
2022/10/10 06:45:51;;;;;;;;;;;;;;;;;;5012790;28;8530;-83
2022/10/10 06:48:17;;;;;;;;;;;;;;;;;;5013073;28;8693;-82
2022/10/10 06:50:43;;;;;;;;;;;;;;;;;;5012631;28;9572;-82
2022/10/10 06:53:08;;;;;;;;;;;;;;;;;;5012601;28;7421;-82
2022/10/10 06:55:34;;;;;;;;;;;;;;;;;;5012397;28;8342;-82
2022/10/10 06:58:00;;;;;;;;;;;;;;;;;;5012833;28;7162;-82
2022/10/10 07:00:25;;;;;;;;;;;;;;;;;;5012235;28;8431;-82
2022/10/10 07:02:51;;;;;;;;;;;;;;;;;;5013578;28;7019;-82
2022/10/10 07:05:17;;;;;;;;;;;;;;;;;;5012468;28;8512;-82
2022/10/10 07:07:44;;;;;;;;;;;;;;;;;;5012754;28;8516;-82
2022/10/10 07:10:12;;;;;;;;;;;;;;;;;;5012358;28;7104;-83
2022/10/10 07:12:38;;;;;;;;;;;;;;;;;;5012221;28;8787;-82
2022/10/10 07:15:04;;;;;;;;;;;;;;;;;;5005411;28;8508;-81
2022/10/10 07:17:30;;;;;;;;;;;;;;;;;;5001172;28;8517;-82
2022/10/10 07:19:55;;;;;;;;;;;;;;;;;;4994467;28;7173;-82
2022/10/10 07:22:21;;;;;;;;;;;;;;;;;;4992756;28;7420;-82
2022/10/10 07:24:46;;;;;;;;;;;;;;;;;;4992230;28;8400;-82
2022/10/10 07:27:12;;;;;;;;;;;;;;;;;;4992608;28;8752;-82
2022/10/10 07:29:38;;;;;;;;;;;;;;;;;;4992282;28;8485;-83
2022/10/10 07:32:04;;;;;;;;;;;;;;;;;;4992248;28;7204;-83
2022/10/10 07:34:29;;;;;;;;;;;;;;;;;;4992210;28;7129;-82
2022/10/10 07:36:55;;;;;;;;;;;;;;;;;;4992246;28;8370;-82
2022/10/10 07:39:21;;;;;;;;;;;;;;;;;;4991559;28;7162;-81
2022/10/10 07:41:48;;;;;;;;;;;;;;;;;;4991289;28;7252;-83
2022/10/10 07:44:14;;;;;;;;;;;;;;;;;;4991213;28;7156;-82
2022/10/10 07:46:39;;;;;;;;;;;;;;;;;;4992032;28;6983;-84
2022/10/10 07:49:05;;;;;;;;;;;;;;;;;;4991965;28;8875;-83
2022/10/10 07:51:30;;;;;;;;;;;;;;;;;;4991537;28;7221;-82
2022/10/10 07:53:56;;;;;;;;;;;;;;;;;;4992658;28;8820;-82
2022/10/10 07:56:22;;;;;;;;;;;;;;;;;;4991790;28;7167;-82
2022/10/10 07:58:48;;;;;;;;;;;;;;;;;;4992052;28;8796;-82
2022/10/10 08:01:14;;;;;;;;;;;;;;;;;;4991682;28;8364;-80
2022/10/10 08:03:40;;;;;;;;;;;;;;;;;;4990100;28;8452;-82
2022/10/10 08:06:07;;;;;;;;;;;;;;;;;;4991098;28;7097;-82
2022/10/10 08:08:34;;;;;;;;;;;;;;;;;;4991323;28;8611;-81
2022/10/10 08:10:59;;;;;;;;;;;;;;;;;;4991122;28;8449;-82
2022/10/10 08:13:25;;;;;;;;;;;;;;;;;;4990929;28;8628;-82
2022/10/10 08:15:51;;;;;;;;;;;;;;;;;;4990960;28;8497;-82
2022/10/10 08:18:17;;;;;;;;;;;;;;;;;;4990990;28;8536;-82
2022/10/10 08:20:45;;;;;;;;;;;;;;;;;;4990899;28;7067;-83
2022/10/10 08:23:10;;;;;;;;;;;;;;;;;;4990757;28;6903;-82
2022/10/10 08:25:36;;;;;;;;;;;;;;;;;;4990660;28;7058;-82
2022/10/10 08:28:02;;;;;;;;;;;;;;;;;;4991665;28;7382;-83
2022/10/10 08:30:28;;;;;;;;;;;;;;;;;;4991267;28;8478;-82
2022/10/10 08:32:53;;;;;;;;;;;;;;;;;;4992026;28;8737;-83
2022/10/10 08:35:19;;;;;;;;;;;;;;;;;;4991858;28;8382;-81
2022/10/10 08:37:45;;;;;;;;;;;;;;;;;;4991640;28;9343;-82
2022/10/10 08:40:18;;;;;;;;;;;;;;;;;;4991345;28;8947;-83
2022/10/10 08:42:49;;;;;;;;;;;;;;;;;;4992025;28;8614;-82
2022/10/10 08:45:21;;;;;;;;;;;;;;;;;;4992042;28;7131;-83
2022/10/10 08:47:52;;;;;;;;;;;;;;;;;;4991892;28;8357;-83
2022/10/10 08:50:23;;;;;;;;;;;;;;;;;;4991588;28;8338;-84
2022/10/10 08:52:55;;;;;;;;;;;;;;;;;;4991359;28;8480;-82
2022/10/10 08:55:29;;;;;;;;;;;;;;;;;;4991216;28;8740;-82
2022/10/10 08:57:59;;;;;;;;;;;;;;;;;;4991086;28;8407;-82
2022/10/10 09:00:31;;;;;;;;;;;;;;;;;;4991348;28;8794;-83
2022/10/10 09:02:59;;;;;;;;;;;;;;;;;;4991651;28;7245;-83
2022/10/10 09:05:25;;;;;;;;;;;;;;;;;;4990794;28;7043;-82
2022/10/10 09:07:57;;;;;;;;;;;;;;;;;;4991129;28;8452;-85
2022/10/10 09:10:45;;;;;;;;;;;;;;;;;;4990830;28;7058;-83
2022/10/10 09:13:11;;;;;;;;;;;;;;;;;;4991995;28;7053;-80
2022/10/10 09:15:47;;;;;;;;;;;;;;;;;;4990672;28;8304;-81
2022/10/10 09:18:31;;;;;;;;;;;;;;;;;;4991411;28;8410;-81
2022/10/10 09:21:03;;;;;;;;;;;;;;;;;;4990223;28;7188;-81
2022/10/10 09:23:33;;;;;;;;;;;;;;;;;;4990989;28;8426;-82
2022/10/10 09:26:03;;;;;;;;;;;;;;;;;;4989461;28;8315;-83
2022/10/10 09:28:38;;;;;;;;;;;;;;;;;;4990493;28;8469;-83
2022/10/10 09:31:15;;;;;;;;;;;;;;;;;;4990579;28;8812;-83
2022/10/10 09:33:47;;;;;;;;;;;;;;;;;;4991096;28;7018;-83
2022/10/10 09:36:17;;;;;;;;;;;;;;;;;;4990668;28;8703;-82
2022/10/10 09:38:50;;;;;;;;;;;;;;;;;;4989588;28;8411;-82
2022/10/10 09:41:32;;;;;;;;;;;;;;;;;;4988565;28;8612;-81
2022/10/10 09:43:59;;;;;;;;;;;;;;;;;;4989288;28;8513;-81
2022/10/10 09:46:26;;;;;;;;;;;;;;;;;;4989039;28;7053;-81
2022/10/10 09:48:53;;;;;;;;;;;;;;;;;;4990331;28;7164;-82
2022/10/10 09:51:20;;;;;;;;;;;;;;;;;;4992655;28;7995;-81
2022/10/10 09:53:47;;;;;;;;;;;;;;;;;;4993558;28;8349;-84
2022/10/10 09:56:28;;;;;;;;;;;;;;;;;;4994447;28;8595;-83
2022/10/10 09:58:55;;;;;;;;;;;;;;;;;;4994056;28;8556;-84
2022/10/10 10:01:23;;;;;;;;;;;;;;;;;;4994308;28;8720;-84
2022/10/10 10:04:27;;;;;;;;;;;;;;;;;;4994210;28;8291;-84
2022/10/10 10:07:02;;;;;;;;;;;;;;;;;;4977050;28;7385;-83
2022/10/10 10:09:28;;;;;;;;;;;;;;;;;;4961030;28;8490;-84
2022/10/10 10:11:55;;;;;;;;;;;;;;;;;;4960770;28;7150;-85
2022/10/10 10:14:25;;;;;;;;;;;;;;;;;;4960630;28;7182;-83
2022/10/10 10:16:51;;;;;;;;;;;;;;;;;;4961033;28;8436;-83
2022/10/10 10:19:29;;;;;;;;;;;;;;;;;;4960826;28;8405;-84
2022/10/10 10:21:55;;;;;;;;;;;;;;;;;;4962374;28;8603;-83
2022/10/10 10:24:23;;;;;;;;;;;;;;;;;;4960691;28;7221;-83
2022/10/10 10:26:49;;;;;;;;;;;;;;;;;;4960367;28;7940;-83
2022/10/10 10:29:28;;;;;;;;;;;;;;;;;;4961283;28;7323;-84
2022/10/10 10:32:03;;;;;;;;;;;;;;;;;;4960428;28;7277;-83
2022/10/10 10:34:31;;;;;;;;;;;;;;;;;;4960457;28;8469;-85
2022/10/10 10:36:56;;;;;;;;;;;;;;;;;;4962184;28;7276;-84
2022/10/10 10:39:31;;;;;;;;;;;;;;;;;;4994978;28;7486;-84
2022/10/10 10:42:15;;;;;;;;;;;;;;;;;;4996349;28;8807;-83
2022/10/10 10:44:43;;;;;;;;;;;;;;;;;;4996631;28;7365;-84
2022/10/10 10:47:12;;;;;;;;;;;;;;;;;;4997063;28;8686;-83
2022/10/10 10:49:52;;;;;;;;;;;;;;;;;;4997388;28;8407;-83
2022/10/10 10:52:34;;;;;;;;;;;;;;;;;;4996149;28;8727;-83
2022/10/10 10:55:12;;;;;;;;;;;;;;;;;;4997304;28;8825;-83
2022/10/10 10:57:52;;;;;;;;;;;;;;;;;;4996650;28;7262;-82
2022/10/10 11:00:19;;;;;;;;;;;;;;;;;;4996621;28;7047;-84
2022/10/10 11:02:50;;;;;;;;;;;;;;;;;;4996330;28;9021;-84
2022/10/10 11:05:22;;;;;;;;;;;;;;;;;;4995959;28;7950;-83
2022/10/10 11:07:58;;;;;;;;;;;;;;;;;;4996041;28;8817;-83
2022/10/10 11:10:24;;;;;;;;;;;;;;;;;;4997566;28;7161;-84
2022/10/10 11:12:55;;;;;;;;;;;;;;;;;;4995723;28;8483;-83
2022/10/10 11:15:28;;;;;;;;;;;;;;;;;;4996670;28;7295;-84
2022/10/10 11:18:00;;;;;;;;;;;;;;;;;;4996112;28;8403;-83
2022/10/10 11:20:29;;;;;;;;;;;;;;;;;;4995981;28;7228;-84
2022/10/10 11:23:09;;;;;;;;;;;;;;;;;;4996109;28;8469;-83
2022/10/10 11:25:46;;;;;;;;;;;;;;;;;;4996039;28;8783;-83
2022/10/10 11:28:20;;;;;;;;;;;;;;;;;;4995764;28;8720;-84
2022/10/10 11:30:55;;;;;;;;;;;;;;;;;;4995676;28;7438;-84
2022/10/10 11:33:28;;;;;;;;;;;;;;;;;;4996139;28;8418;-84
2022/10/10 11:35:59;;;;;;;;;;;;;;;;;;4996101;28;7058;-84
2022/10/10 11:38:30;;;;;;;;;;;;;;;;;;4995786;28;6984;-84
2022/10/10 11:40:56;;;;;;;;;;;;;;;;;;4995050;28;7123;-84
2022/10/10 11:43:28;;;;;;;;;;;;;;;;;;4995200;28;8411;-84
2022/10/10 11:45:59;;;;;;;;;;;;;;;;;;4995557;28;8479;-76
2022/10/10 11:48:25;;;;;;;;;;;;;;;;;;4996121;28;8488;-83
2022/10/10 11:51:14;;;;;;;;;;;;;;;;;;4995472;28;8486;-83
2022/10/10 11:53:43;;;;;;;;;;;;;;;;;;4979432;28;8338;-83
2022/10/10 11:56:15;;;;;;;;;;;;;;;;;;4994932;28;8575;-83
2022/10/10 11:58:41;;;;;;;;;;;;;;;;;;4995576;28;8658;-84
2022/10/10 12:01:09;;;;;;;;;;;;;;;;;;4995124;28;8349;-85
2022/10/10 12:03:35;;;;;;;;;;;;;;;;;;4995142;28;8846;-83
2022/10/10 12:06:16;;;;;;;;;;;;;;;;;;4995178;28;8454;-82
2022/10/10 12:08:57;;;;;;;;;;;;;;;;;;4994776;28;8561;-84
2022/10/10 12:11:29;;;;;;;;;;;;;;;;;;4994704;28;7631;-83
2022/10/10 12:13:58;;;;;;;;;;;;;;;;;;4994674;28;8591;-85
2022/10/10 12:16:27;;;;;;;;;;;;;;;;;;4994087;28;7121;-85
2022/10/10 12:19:17;;;;;;;;;;;;;;;;;;4994585;28;8419;-84
2022/10/10 12:21:53;;;;;;;;;;;;;;;;;;4994873;28;7046;-86
2022/10/10 12:24:19;;;;;;;;;;;;;;;;;;4994555;28;8701;-85
2022/10/10 12:27:05;;;;;;;;;;;;;;;;;;4994869;28;9262;-84
2022/10/10 12:29:43;;;;;;;;;;;;;;;;;;4939534;28;8449;-86
2022/10/10 12:32:30;;;;;;;;;;;;;;;;;;4994508;28;8886;-85
2022/10/10 12:34:58;;;;;;;;;;;;;;;;;;4964561;28;8435;-84
2022/10/10 12:37:27;;;;;;;;;;;;;;;;;;4995351;28;8445;-85
2022/10/10 12:40:01;;;;;;;;;;;;;;;;;;4994123;28;8615;-85
2022/10/10 12:42:49;;;;;;;;;;;;;;;;;;4994625;28;8836;-85
2022/10/10 12:45:27;;;;;;;;;;;;;;;;;;4968053;28;7193;-84
2022/10/10 12:47:53;;;;;;;;;;;;;;;;;;4994247;28;8657;-84
2022/10/10 12:50:25;;;;;;;;;;;;;;;;;;4994605;28;7066;-84
2022/10/10 12:52:56;;;;;;;;;;;;;;;;;;4994350;28;8805;-85
2022/10/10 12:55:25;;;;;;;;;;;;;;;;;;4995129;28;7523;-85
2022/10/10 12:58:02;;;;;;;;;;;;;;;;;;4994559;28;8785;-85
2022/10/10 13:00:47;;;;;;;;;;;;;;;;;;4994565;28;8488;-85
2022/10/10 13:03:26;;;;;;;;;;;;;;;;;;4994297;28;8899;-84
2022/10/10 13:05:53;;;;;;;;;;;;;;;;;;4994148;28;8474;-84
2022/10/10 13:08:23;;;;;;;;;;;;;;;;;;4994171;28;7231;-86
2022/10/10 13:11:15;;;;;;;;;;;;;;;;;;4994489;28;8503;-83
2022/10/10 13:13:52;;;;;;;;;;;;;;;;;;4974399;28;9359;-85
2022/10/10 13:16:20;;;;;;;;;;;;;;;;;;4994262;28;8682;-85
2022/10/10 13:18:50;;;;;;;;;;;;;;;;;;4994387;28;7191;-85
2022/10/10 13:21:22;;;;;;;;;;;;;;;;;;4994084;28;8769;-85
2022/10/10 13:23:54;;;;;;;;;;;;;;;;;;4994947;28;8882;-85
2022/10/10 13:26:23;;;;;;;;;;;;;;;;;;4997908;28;8443;-85
2022/10/10 13:29:00;;;;;;;;;;;;;;;;;;4997924;28;8880;-85
2022/10/10 13:31:28;;;;;;;;;;;;;;;;;;4998048;28;8326;-85
2022/10/10 13:34:03;;;;;;;;;;;;;;;;;;4997924;28;8444;-85
2022/10/10 13:36:30;;;;;;;;;;;;;;;;;;4998248;28;7057;-86
2022/10/10 13:38:56;;;;;;;;;;;;;;;;;;4997648;28;8409;-86
2022/10/10 13:41:23;;;;;;;;;;;;;;;;;;4993974;28;8325;-86
2022/10/10 13:43:49;;;;;;;;;;;;;;;;;;4995181;28;7358;-86
2022/10/10 13:46:32;;;;;;;;;;;;;;;;;;4994561;28;8727;-85
2022/10/10 13:48:59;;;;;;;;;;;;;;;;;;4994545;28;7451;-85
2022/10/10 13:51:44;;;;;;;;;;;;;;;;;;4994140;28;8412;-85
2022/10/10 13:54:28;;;;;;;;;;;;;;;;;;4994235;28;7257;-85
2022/10/10 13:56:54;;;;;;;;;;;;;;;;;;4994431;28;7057;-85
2022/10/10 13:59:23;;;;;;;;;;;;;;;;;;4994411;28;8467;-86
2022/10/10 14:01:58;;;;;;;;;;;;;;;;;;4994195;28;8753;-84
2022/10/10 14:04:24;;;;;;;;;;;;;;;;;;4994732;28;8436;-85
2022/10/10 14:06:56;;;;;;;;;;;;;;;;;;4994340;28;8436;-84
2022/10/10 14:09:32;;;;;;;;;;;;;;;;;;4993926;28;9021;-84
2022/10/10 14:12:01;;;;;;;;;;;;;;;;;;4994126;28;9338;-85
2022/10/10 14:14:53;;;;;;;;;;;;;;;;;;4993949;28;7352;-85
2022/10/10 14:17:20;;;;;;;;;;;;;;;;;;4990932;28;8441;-79
2022/10/10 14:19:47;;;;;;;;;;;;;;;;;;4993837;28;8641;-85
2022/10/10 14:22:13;;;;;;;;;;;;;;;;;;4993621;28;8457;-85
2022/10/10 14:24:39;;;;;;;;;;;;;;;;;;4993638;28;7215;-86
2022/10/10 14:27:10;;;;;;;;;;;;;;;;;;4993915;28;8430;-85
2022/10/10 14:29:37;;;;;;;;;;;;;;;;;;4994352;28;8465;-85
2022/10/10 14:32:03;;;;;;;;;;;;;;;;;;4993891;28;7171;-84
2022/10/10 14:34:29;;;;;;;;;;;;;;;;;;4993123;28;7047;-85
2022/10/10 14:36:54;;;;;;;;;;;;;;;;;;4993579;28;8781;-85
2022/10/10 14:39:20;;;;;;;;;;;;;;;;;;4994614;28;7155;-84
2022/10/10 14:41:46;;;;;;;;;;;;;;;;;;4997061;28;8744;-86
2022/10/10 14:44:12;;;;;;;;;;;;;;;;;;4997791;28;7249;-85
2022/10/10 14:46:39;;;;;;;;;;;;;;;;;;4997333;28;8396;-79
2022/10/10 14:49:05;;;;;;;;;;;;;;;;;;4997171;28;8426;-83
2022/10/10 14:51:37;;;;;;;;;;;;;;;;;;4996438;28;6894;-84
2022/10/10 14:54:03;;;;;;;;;;;;;;;;;;4996447;28;7251;-83
2022/10/10 14:56:30;;;;;;;;;;;;;;;;;;4996175;28;7172;-84
2022/10/10 14:58:55;;;;;;;;;;;;;;;;;;4996656;28;7193;-84
2022/10/10 15:01:21;;;;;;;;;;;;;;;;;;4996224;28;8678;-84
2022/10/10 15:03:47;;;;;;;;;;;;;;;;;;4996576;28;7054;-85
2022/10/10 15:06:12;;;;;;;;;;;;;;;;;;4995981;28;8383;-85
2022/10/10 15:08:38;;;;;;;;;;;;;;;;;;4996257;28;9578;-86
2022/10/10 15:11:03;;;;;;;;;;;;;;;;;;4996183;28;7326;-85
2022/10/10 15:13:29;;;;;;;;;;;;;;;;;;4996875;28;8733;-85
2022/10/10 15:15:54;;;;;;;;;;;;;;;;;;4995823;28;8424;-85
2022/10/10 15:18:20;;;;;;;;;;;;;;;;;;4995798;28;8419;-83
2022/10/10 15:20:45;;;;;;;;;;;;;;;;;;4995870;28;8439;-84
2022/10/10 15:23:11;;;;;;;;;;;;;;;;;;4996322;28;7141;-86
2022/10/10 15:25:41;;;;;;;;;;;;;;;;;;4995629;28;7103;-85
2022/10/10 15:28:07;;;;;;;;;;;;;;;;;;4996042;28;8491;-85
2022/10/10 15:30:33;;;;;;;;;;;;;;;;;;4995620;28;8423;-85
2022/10/10 15:32:58;;;;;;;;;;;;;;;;;;4996080;28;8460;-84
2022/10/10 15:35:25;;;;;;;;;;;;;;;;;;4995503;28;8536;-84
2022/10/10 15:37:51;;;;;;;;;;;;;;;;;;4995907;28;7213;-84
2022/10/10 15:40:19;;;;;;;;;;;;;;;;;;4991946;28;8403;-82
2022/10/10 15:42:45;;;;;;;;;;;;;;;;;;4992474;28;9062;-83
2022/10/10 15:45:11;;;;;;;;;;;;;;;;;;4992016;28;8426;-84
2022/10/10 15:47:37;;;;;;;;;;;;;;;;;;5014683;28;8699;-84
2022/10/10 15:50:04;;;;;;;;;;;;;;;;;;5014779;28;8935;-83
2022/10/10 15:52:29;;;;;;;;;;;;;;;;;;5015219;28;8447;-84
2022/10/10 15:54:55;;;;;;;;;;;;;;;;;;5014607;28;8791;-85
2022/10/10 15:57:21;;;;;;;;;;;;;;;;;;4993171;28;8374;-84
2022/10/10 15:59:47;;;;;;;;;;;;;;;;;;4999624;28;7175;-83
2022/10/10 16:02:13;;;;;;;;;;;;;;;;;;4999025;28;8526;-84
2022/10/10 16:04:38;;;;;;;;;;;;;;;;;;5005725;28;8353;-82
2022/10/10 16:07:05;;;;;;;;;;;;;;;;;;5010758;28;8888;-83
2022/10/10 16:09:32;;;;;;;;;;;;;;;;;;5011512;28;8468;-82
2022/10/10 16:11:58;;;;;;;;;;;;;;;;;;5011682;28;8874;-83
2022/10/10 16:14:23;;;;;;;;;;;;;;;;;;5010371;28;8585;-84
2022/10/10 16:16:49;;;;;;;;;;;;;;;;;;4992730;28;8720;-85
2022/10/10 16:19:15;;;;;;;;;;;;;;;;;;4991852;28;8841;-84
2022/10/10 16:21:41;;;;;;;;;;;;;;;;;;4993376;28;8439;-84
2022/10/10 16:24:07;;;;;;;;;;;;;;;;;;4991331;28;7249;-85
2022/10/10 16:26:35;;;;;;;;;;;;;;;;;;4991393;28;8457;-84
2022/10/10 16:29:02;;;;;;;;;;;;;;;;;;4991280;28;7248;-84
2022/10/10 16:31:28;;;;;;;;;;;;;;;;;;4991845;28;8509;-84
2022/10/10 16:33:55;;;;;;;;;;;;;;;;;;4991529;28;7204;-85
2022/10/10 16:36:25;;;;;;;;;;;;;;;;;;4991494;28;7074;-85
2022/10/10 16:38:53;;;;;;;;;;;;;;;;;;4992095;28;8546;-85
2022/10/10 16:41:19;;;;;;;;;;;;;;;;;;4990929;28;7274;-85
2022/10/10 16:43:46;;;;;;;;;;;;;;;;;;4992245;28;7203;-86
2022/10/10 16:46:13;;;;;;;;;;;;;;;;;;4991178;28;8462;-85
2022/10/10 16:48:39;;;;;;;;;;;;;;;;;;4991624;28;8638;-84
2022/10/10 16:51:07;;;;;;;;;;;;;;;;;;4991304;28;8524;-85
2022/10/10 16:53:33;;;;;;;;;;;;;;;;;;4992062;28;7455;-85
2022/10/10 16:56:00;;;;;;;;;;;;;;;;;;4991255;28;7023;-85
2022/10/10 16:58:26;;;;;;;;;;;;;;;;;;4991168;28;8465;-85
2022/10/10 17:00:52;;;;;;;;;;;;;;;;;;4991286;28;7293;-85
2022/10/10 17:03:18;;;;;;;;;;;;;;;;;;4991314;28;8450;-84
2022/10/10 17:05:44;;;;;;;;;;;;;;;;;;4991192;28;7166;-85
2022/10/10 17:08:10;;;;;;;;;;;;;;;;;;4991973;28;7418;-84
2022/10/10 17:10:36;;;;;;;;;;;;;;;;;;4991146;28;8758;-84
2022/10/10 17:13:01;;;;;;;;;;;;;;;;;;4991096;28;8409;-86